sensor_id;sensor_type;location;lat;lon;timestamp;P1;durP1;ratioP1;P2;durP2;ratioP2
75139;SDS011;63714;55.812;37.658;2023-08-24T00:01:40;13.73;;;7.53;;
75139;SDS011;63714;55.812;37.658;2023-08-24T00:04:06;12.07;;;6.55;;
75139;SDS011;63714;55.812;37.658;2023-08-24T00:06:33;10.20;;;6.47;;
75139;SDS011;63714;55.812;37.658;2023-08-24T00:08:58;9.63;;;6.90;;
75139;SDS011;63714;55.812;37.658;2023-08-24T00:11:24;8.52;;;6.28;;
75139;SDS011;63714;55.812;37.658;2023-08-24T00:13:50;8.10;;;6.05;;
75139;SDS011;63714;55.812;37.658;2023-08-24T00:16:19;12.70;;;6.57;;
75139;SDS011;63714;55.812;37.658;2023-08-24T00:18:45;9.25;;;6.63;;
75139;SDS011;63714;55.812;37.658;2023-08-24T00:21:15;10.07;;;6.18;;
75139;SDS011;63714;55.812;37.658;2023-08-24T00:23:42;10.23;;;6.32;;
75139;SDS011;63714;55.812;37.658;2023-08-24T00:26:09;8.68;;;6.15;;
75139;SDS011;63714;55.812;37.658;2023-08-24T00:28:35;8.25;;;5.55;;
75139;SDS011;63714;55.812;37.658;2023-08-24T00:31:00;8.98;;;5.78;;
75139;SDS011;63714;55.812;37.658;2023-08-24T00:33:26;8.23;;;5.38;;
75139;SDS011;63714;55.812;37.658;2023-08-24T00:35:51;9.02;;;5.38;;
75139;SDS011;63714;55.812;37.658;2023-08-24T00:38:17;7.38;;;4.95;;
75139;SDS011;63714;55.812;37.658;2023-08-24T00:40:42;6.50;;;4.97;;
75139;SDS011;63714;55.812;37.658;2023-08-24T00:43:09;7.20;;;4.75;;
75139;SDS011;63714;55.812;37.658;2023-08-24T00:45:34;7.47;;;4.97;;
75139;SDS011;63714;55.812;37.658;2023-08-24T00:48:01;7.95;;;5.18;;
75139;SDS011;63714;55.812;37.658;2023-08-24T00:50:27;6.65;;;4.75;;
75139;SDS011;63714;55.812;37.658;2023-08-24T00:52:53;7.38;;;4.60;;
75139;SDS011;63714;55.812;37.658;2023-08-24T00:55:19;7.05;;;5.00;;
75139;SDS011;63714;55.812;37.658;2023-08-24T00:57:45;8.30;;;5.32;;
75139;SDS011;63714;55.812;37.658;2023-08-24T01:00:12;7.95;;;4.85;;
75139;SDS011;63714;55.812;37.658;2023-08-24T01:02:38;6.72;;;5.07;;
75139;SDS011;63714;55.812;37.658;2023-08-24T01:05:04;6.63;;;4.60;;
75139;SDS011;63714;55.812;37.658;2023-08-24T01:07:34;6.95;;;4.60;;
75139;SDS011;63714;55.812;37.658;2023-08-24T01:10:02;6.20;;;4.80;;
75139;SDS011;63714;55.812;37.658;2023-08-24T01:18:04;6.13;;;4.43;;
75139;SDS011;63714;55.812;37.658;2023-08-24T01:20:31;6.65;;;4.30;;
75139;SDS011;63714;55.812;37.658;2023-08-24T01:25:53;9.77;;;4.60;;
75139;SDS011;63714;55.812;37.658;2023-08-24T01:28:20;5.40;;;4.20;;
75139;SDS011;63714;55.812;37.658;2023-08-24T01:30:47;4.75;;;3.75;;
75139;SDS011;63714;55.812;37.658;2023-08-24T01:33:13;6.32;;;4.50;;
75139;SDS011;63714;55.812;37.658;2023-08-24T01:35:39;6.65;;;4.25;;
75139;SDS011;63714;55.812;37.658;2023-08-24T01:38:06;6.85;;;4.18;;
75139;SDS011;63714;55.812;37.658;2023-08-24T01:43:21;5.45;;;3.85;;
75139;SDS011;63714;55.812;37.658;2023-08-24T01:45:54;6.95;;;4.20;;
75139;SDS011;63714;55.812;37.658;2023-08-24T01:48:23;6.22;;;3.88;;
75139;SDS011;63714;55.812;37.658;2023-08-24T01:50:50;6.25;;;3.75;;
75139;SDS011;63714;55.812;37.658;2023-08-24T01:53:16;5.25;;;3.72;;
75139;SDS011;63714;55.812;37.658;2023-08-24T01:55:43;7.75;;;3.75;;
75139;SDS011;63714;55.812;37.658;2023-08-24T01:58:10;5.25;;;3.88;;
75139;SDS011;63714;55.812;37.658;2023-08-24T02:00:36;6.40;;;3.70;;
75139;SDS011;63714;55.812;37.658;2023-08-24T02:03:01;5.45;;;3.20;;
75139;SDS011;63714;55.812;37.658;2023-08-24T02:05:27;5.50;;;3.83;;
75139;SDS011;63714;55.812;37.658;2023-08-24T02:07:54;4.80;;;3.42;;
75139;SDS011;63714;55.812;37.658;2023-08-24T02:10:20;6.25;;;3.55;;
75139;SDS011;63714;55.812;37.658;2023-08-24T02:12:45;4.60;;;3.10;;
75139;SDS011;63714;55.812;37.658;2023-08-24T02:15:11;3.53;;;2.88;;
75139;SDS011;63714;55.812;37.658;2023-08-24T02:17:37;4.00;;;2.90;;
75139;SDS011;63714;55.812;37.658;2023-08-24T02:20:03;3.85;;;3.10;;
75139;SDS011;63714;55.812;37.658;2023-08-24T02:22:31;3.70;;;2.70;;
75139;SDS011;63714;55.812;37.658;2023-08-24T02:24:56;4.28;;;2.88;;
75139;SDS011;63714;55.812;37.658;2023-08-24T02:27:22;6.80;;;3.50;;
75139;SDS011;63714;55.812;37.658;2023-08-24T02:29:47;3.97;;;2.50;;
75139;SDS011;63714;55.812;37.658;2023-08-24T02:32:13;4.20;;;2.70;;
75139;SDS011;63714;55.812;37.658;2023-08-24T02:34:38;3.13;;;2.55;;
75139;SDS011;63714;55.812;37.658;2023-08-24T02:37:04;4.85;;;2.78;;
75139;SDS011;63714;55.812;37.658;2023-08-24T02:39:29;4.93;;;2.92;;
75139;SDS011;63714;55.812;37.658;2023-08-24T02:41:55;4.88;;;2.80;;
75139;SDS011;63714;55.812;37.658;2023-08-24T02:44:20;3.45;;;2.90;;
75139;SDS011;63714;55.812;37.658;2023-08-24T02:46:47;3.72;;;2.67;;
75139;SDS011;63714;55.812;37.658;2023-08-24T02:49:13;3.47;;;2.38;;
75139;SDS011;63714;55.812;37.658;2023-08-24T02:51:39;5.60;;;3.13;;
75139;SDS011;63714;55.812;37.658;2023-08-24T02:54:04;5.20;;;3.13;;
75139;SDS011;63714;55.812;37.658;2023-08-24T02:56:30;4.35;;;2.80;;
75139;SDS011;63714;55.812;37.658;2023-08-24T02:58:56;4.05;;;2.75;;
75139;SDS011;63714;55.812;37.658;2023-08-24T03:01:21;5.03;;;3.30;;
75139;SDS011;63714;55.812;37.658;2023-08-24T03:03:47;5.38;;;2.92;;
75139;SDS011;63714;55.812;37.658;2023-08-24T03:06:13;4.93;;;3.78;;
75139;SDS011;63714;55.812;37.658;2023-08-24T03:08:38;5.18;;;2.80;;
75139;SDS011;63714;55.812;37.658;2023-08-24T03:11:04;7.68;;;3.03;;
75139;SDS011;63714;55.812;37.658;2023-08-24T03:13:30;5.28;;;3.63;;
75139;SDS011;63714;55.812;37.658;2023-08-24T03:15:56;6.53;;;3.70;;
75139;SDS011;63714;55.812;37.658;2023-08-24T03:18:22;6.15;;;4.10;;
75139;SDS011;63714;55.812;37.658;2023-08-24T03:20:48;6.15;;;4.18;;
75139;SDS011;63714;55.812;37.658;2023-08-24T03:23:14;5.50;;;3.88;;
75139;SDS011;63714;55.812;37.658;2023-08-24T03:25:41;5.82;;;4.15;;
75139;SDS011;63714;55.812;37.658;2023-08-24T03:28:07;7.03;;;3.95;;
75139;SDS011;63714;55.812;37.658;2023-08-24T03:30:38;7.30;;;4.30;;
75139;SDS011;63714;55.812;37.658;2023-08-24T03:33:05;6.05;;;4.18;;
75139;SDS011;63714;55.812;37.658;2023-08-24T03:35:31;8.32;;;4.60;;
75139;SDS011;63714;55.812;37.658;2023-08-24T03:37:57;11.07;;;4.07;;
75139;SDS011;63714;55.812;37.658;2023-08-24T03:40:23;7.30;;;4.35;;
75139;SDS011;63714;55.812;37.658;2023-08-24T03:42:49;8.70;;;4.70;;
75139;SDS011;63714;55.812;37.658;2023-08-24T03:45:15;7.60;;;4.60;;
75139;SDS011;63714;55.812;37.658;2023-08-24T03:47:40;6.10;;;4.03;;
75139;SDS011;63714;55.812;37.658;2023-08-24T03:50:06;6.63;;;4.25;;
75139;SDS011;63714;55.812;37.658;2023-08-24T03:52:32;6.45;;;4.70;;
75139;SDS011;63714;55.812;37.658;2023-08-24T03:54:58;6.53;;;4.15;;
75139;SDS011;63714;55.812;37.658;2023-08-24T03:57:24;6.63;;;3.80;;
75139;SDS011;63714;55.812;37.658;2023-08-24T03:59:49;6.38;;;4.07;;
75139;SDS011;63714;55.812;37.658;2023-08-24T04:02:15;6.78;;;4.25;;
75139;SDS011;63714;55.812;37.658;2023-08-24T04:04:40;9.93;;;4.10;;
75139;SDS011;63714;55.812;37.658;2023-08-24T04:07:06;6.85;;;4.18;;
75139;SDS011;63714;55.812;37.658;2023-08-24T04:09:32;7.60;;;4.50;;
75139;SDS011;63714;55.812;37.658;2023-08-24T04:11:57;8.52;;;4.63;;
75139;SDS011;63714;55.812;37.658;2023-08-24T04:14:23;8.02;;;4.03;;
75139;SDS011;63714;55.812;37.658;2023-08-24T04:16:48;6.70;;;4.00;;
75139;SDS011;63714;55.812;37.658;2023-08-24T04:19:14;7.60;;;4.28;;
75139;SDS011;63714;55.812;37.658;2023-08-24T04:21:39;7.47;;;4.45;;
75139;SDS011;63714;55.812;37.658;2023-08-24T04:24:05;6.32;;;3.53;;
75139;SDS011;63714;55.812;37.658;2023-08-24T04:26:31;8.68;;;4.13;;
75139;SDS011;63714;55.812;37.658;2023-08-24T04:28:57;8.98;;;4.53;;
75139;SDS011;63714;55.812;37.658;2023-08-24T04:31:22;7.05;;;4.32;;
75139;SDS011;63714;55.812;37.658;2023-08-24T04:33:48;7.43;;;4.00;;
75139;SDS011;63714;55.812;37.658;2023-08-24T04:36:14;7.90;;;4.50;;
75139;SDS011;63714;55.812;37.658;2023-08-24T04:38:40;6.50;;;3.70;;
75139;SDS011;63714;55.812;37.658;2023-08-24T04:41:07;8.65;;;3.90;;
75139;SDS011;63714;55.812;37.658;2023-08-24T04:43:34;7.03;;;4.00;;
75139;SDS011;63714;55.812;37.658;2023-08-24T04:46:01;8.50;;;4.13;;
75139;SDS011;63714;55.812;37.658;2023-08-24T04:48:27;7.10;;;3.90;;
75139;SDS011;63714;55.812;37.658;2023-08-24T04:50:52;5.60;;;3.70;;
75139;SDS011;63714;55.812;37.658;2023-08-24T04:53:19;5.15;;;3.67;;
75139;SDS011;63714;55.812;37.658;2023-08-24T04:55:45;8.05;;;3.70;;
75139;SDS011;63714;55.812;37.658;2023-08-24T04:58:12;5.35;;;3.45;;
75139;SDS011;63714;55.812;37.658;2023-08-24T05:00:41;6.15;;;4.22;;
75139;SDS011;63714;55.812;37.658;2023-08-24T05:03:08;5.07;;;3.67;;
75139;SDS011;63714;55.812;37.658;2023-08-24T05:05:35;7.40;;;4.40;;
75139;SDS011;63714;55.812;37.658;2023-08-24T05:08:01;6.10;;;3.90;;
75139;SDS011;63714;55.812;37.658;2023-08-24T05:10:32;6.63;;;3.60;;
75139;SDS011;63714;55.812;37.658;2023-08-24T05:12:59;5.22;;;3.30;;
75139;SDS011;63714;55.812;37.658;2023-08-24T05:15:25;5.40;;;3.42;;
75139;SDS011;63714;55.812;37.658;2023-08-24T05:17:51;5.43;;;3.00;;
75139;SDS011;63714;55.812;37.658;2023-08-24T05:20:23;4.82;;;3.20;;
75139;SDS011;63714;55.812;37.658;2023-08-24T05:22:49;6.57;;;2.72;;
75139;SDS011;63714;55.812;37.658;2023-08-24T05:25:14;3.60;;;2.60;;
75139;SDS011;63714;55.812;37.658;2023-08-24T05:27:43;5.78;;;3.13;;
75139;SDS011;63714;55.812;37.658;2023-08-24T05:30:09;4.22;;;2.80;;
75139;SDS011;63714;55.812;37.658;2023-08-24T05:32:35;6.72;;;2.83;;
75139;SDS011;63714;55.812;37.658;2023-08-24T05:35:07;3.97;;;2.72;;
75139;SDS011;63714;55.812;37.658;2023-08-24T05:37:34;5.88;;;3.28;;
75139;SDS011;63714;55.812;37.658;2023-08-24T05:40:00;4.15;;;2.90;;
75139;SDS011;63714;55.812;37.658;2023-08-24T05:42:26;4.25;;;3.28;;
75139;SDS011;63714;55.812;37.658;2023-08-24T05:44:53;5.55;;;3.35;;
75139;SDS011;63714;55.812;37.658;2023-08-24T05:47:18;7.65;;;3.88;;
75139;SDS011;63714;55.812;37.658;2023-08-24T05:49:44;7.82;;;3.90;;
75139;SDS011;63714;55.812;37.658;2023-08-24T05:52:09;6.38;;;4.15;;
75139;SDS011;63714;55.812;37.658;2023-08-24T05:54:38;7.68;;;5.22;;
75139;SDS011;63714;55.812;37.658;2023-08-24T05:57:04;8.32;;;6.32;;
75139;SDS011;63714;55.812;37.658;2023-08-24T05:59:33;8.55;;;6.10;;
75139;SDS011;63714;55.812;37.658;2023-08-24T06:01:59;8.60;;;5.93;;
75139;SDS011;63714;55.812;37.658;2023-08-24T06:04:25;9.00;;;6.53;;
75139;SDS011;63714;55.812;37.658;2023-08-24T06:06:51;9.05;;;6.90;;
75139;SDS011;63714;55.812;37.658;2023-08-24T06:09:17;11.82;;;7.25;;
75139;SDS011;63714;55.812;37.658;2023-08-24T06:11:42;11.73;;;7.00;;
75139;SDS011;63714;55.812;37.658;2023-08-24T06:14:08;9.18;;;6.53;;
75139;SDS011;63714;55.812;37.658;2023-08-24T06:16:33;11.52;;;6.75;;
75139;SDS011;63714;55.812;37.658;2023-08-24T06:18:59;10.50;;;6.20;;
75139;SDS011;63714;55.812;37.658;2023-08-24T06:21:24;8.48;;;5.80;;
75139;SDS011;63714;55.812;37.658;2023-08-24T06:23:49;8.60;;;5.63;;
75139;SDS011;63714;55.812;37.658;2023-08-24T06:26:15;11.73;;;5.95;;
75139;SDS011;63714;55.812;37.658;2023-08-24T06:28:42;10.63;;;5.30;;
75139;SDS011;63714;55.812;37.658;2023-08-24T06:31:07;8.77;;;5.40;;
75139;SDS011;63714;55.812;37.658;2023-08-24T06:33:36;11.20;;;5.60;;
75139;SDS011;63714;55.812;37.658;2023-08-24T06:36:02;8.93;;;4.57;;
75139;SDS011;63714;55.812;37.658;2023-08-24T06:38:30;8.32;;;4.38;;
75139;SDS011;63714;55.812;37.658;2023-08-24T06:40:57;6.50;;;4.07;;
75139;SDS011;63714;55.812;37.658;2023-08-24T06:43:23;5.38;;;4.20;;
75139;SDS011;63714;55.812;37.658;2023-08-24T06:45:48;8.45;;;3.75;;
75139;SDS011;63714;55.812;37.658;2023-08-24T06:48:14;5.85;;;3.60;;
75139;SDS011;63714;55.812;37.658;2023-08-24T06:50:39;10.25;;;4.00;;
75139;SDS011;63714;55.812;37.658;2023-08-24T06:53:05;11.68;;;3.88;;
75139;SDS011;63714;55.812;37.658;2023-08-24T06:55:31;9.77;;;3.55;;
75139;SDS011;63714;55.812;37.658;2023-08-24T06:57:56;4.75;;;3.40;;
75139;SDS011;63714;55.812;37.658;2023-08-24T07:00:22;7.05;;;3.08;;
75139;SDS011;63714;55.812;37.658;2023-08-24T07:02:48;5.20;;;2.90;;
75139;SDS011;63714;55.812;37.658;2023-08-24T07:05:15;4.18;;;2.80;;
75139;SDS011;63714;55.812;37.658;2023-08-24T07:07:44;4.60;;;2.95;;
75139;SDS011;63714;55.812;37.658;2023-08-24T07:10:10;4.18;;;2.63;;
75139;SDS011;63714;55.812;37.658;2023-08-24T07:12:36;9.02;;;6.60;;
75139;SDS011;63714;55.812;37.658;2023-08-24T07:15:02;5.45;;;3.25;;
75139;SDS011;63714;55.812;37.658;2023-08-24T07:17:29;5.18;;;3.40;;
75139;SDS011;63714;55.812;37.658;2023-08-24T07:19:54;5.88;;;3.95;;
75139;SDS011;63714;55.812;37.658;2023-08-24T07:22:20;4.03;;;2.90;;
75139;SDS011;63714;55.812;37.658;2023-08-24T07:24:45;6.22;;;2.85;;
75139;SDS011;63714;55.812;37.658;2023-08-24T07:27:11;4.45;;;3.03;;
75139;SDS011;63714;55.812;37.658;2023-08-24T07:29:37;7.35;;;4.78;;
75139;SDS011;63714;55.812;37.658;2023-08-24T07:32:02;3.83;;;2.42;;
75139;SDS011;63714;55.812;37.658;2023-08-24T07:34:28;4.38;;;2.40;;
75139;SDS011;63714;55.812;37.658;2023-08-24T07:36:54;3.67;;;2.13;;
75139;SDS011;63714;55.812;37.658;2023-08-24T07:39:20;4.22;;;2.42;;
75139;SDS011;63714;55.812;37.658;2023-08-24T07:41:45;2.65;;;2.00;;
75139;SDS011;63714;55.812;37.658;2023-08-24T07:44:11;4.03;;;2.08;;
75139;SDS011;63714;55.812;37.658;2023-08-24T07:46:38;4.25;;;2.13;;
75139;SDS011;63714;55.812;37.658;2023-08-24T07:49:03;3.17;;;2.20;;
75139;SDS011;63714;55.812;37.658;2023-08-24T07:51:29;6.95;;;3.40;;
75139;SDS011;63714;55.812;37.658;2023-08-24T07:53:55;3.47;;;2.60;;
75139;SDS011;63714;55.812;37.658;2023-08-24T07:56:20;2.92;;;2.17;;
75139;SDS011;63714;55.812;37.658;2023-08-24T07:58:45;3.30;;;2.38;;
75139;SDS011;63714;55.812;37.658;2023-08-24T08:01:11;4.13;;;1.95;;
75139;SDS011;63714;55.812;37.658;2023-08-24T08:03:37;2.97;;;2.28;;
75139;SDS011;63714;55.812;37.658;2023-08-24T08:06:02;3.00;;;2.30;;
75139;SDS011;63714;55.812;37.658;2023-08-24T08:08:29;3.60;;;2.20;;
75139;SDS011;63714;55.812;37.658;2023-08-24T08:10:58;10.50;;;8.77;;
75139;SDS011;63714;55.812;37.658;2023-08-24T08:13:25;4.30;;;3.10;;
75139;SDS011;63714;55.812;37.658;2023-08-24T08:15:51;3.17;;;2.20;;
75139;SDS011;63714;55.812;37.658;2023-08-24T08:18:16;6.00;;;2.88;;
75139;SDS011;63714;55.812;37.658;2023-08-24T08:20:42;3.50;;;2.47;;
75139;SDS011;63714;55.812;37.658;2023-08-24T08:23:07;3.85;;;2.25;;
75139;SDS011;63714;55.812;37.658;2023-08-24T08:25:33;3.70;;;2.28;;
75139;SDS011;63714;55.812;37.658;2023-08-24T08:27:58;4.47;;;2.25;;
75139;SDS011;63714;55.812;37.658;2023-08-24T08:30:24;4.93;;;2.75;;
75139;SDS011;63714;55.812;37.658;2023-08-24T08:32:49;3.03;;;2.33;;
75139;SDS011;63714;55.812;37.658;2023-08-24T08:35:17;3.88;;;3.17;;
75139;SDS011;63714;55.812;37.658;2023-08-24T08:37:42;4.07;;;2.60;;
75139;SDS011;63714;55.812;37.658;2023-08-24T08:40:10;3.50;;;2.38;;
75139;SDS011;63714;55.812;37.658;2023-08-24T08:42:36;3.05;;;2.13;;
75139;SDS011;63714;55.812;37.658;2023-08-24T08:45:03;6.80;;;4.85;;
75139;SDS011;63714;55.812;37.658;2023-08-24T08:47:33;5.88;;;3.97;;
75139;SDS011;63714;55.812;37.658;2023-08-24T08:49:58;4.97;;;2.88;;
75139;SDS011;63714;55.812;37.658;2023-08-24T08:52:29;4.78;;;2.67;;
75139;SDS011;63714;55.812;37.658;2023-08-24T08:54:56;2.13;;;1.92;;
75139;SDS011;63714;55.812;37.658;2023-08-24T08:57:22;2.60;;;1.90;;
75139;SDS011;63714;55.812;37.658;2023-08-24T08:59:50;4.47;;;2.42;;
75139;SDS011;63714;55.812;37.658;2023-08-24T09:02:18;4.20;;;2.53;;
75139;SDS011;63714;55.812;37.658;2023-08-24T09:04:45;7.10;;;4.20;;
75139;SDS011;63714;55.812;37.658;2023-08-24T09:07:15;3.50;;;1.92;;
75139;SDS011;63714;55.812;37.658;2023-08-24T09:09:41;3.03;;;2.22;;
75139;SDS011;63714;55.812;37.658;2023-08-24T09:12:07;3.00;;;1.70;;
75139;SDS011;63714;55.812;37.658;2023-08-24T09:14:33;3.95;;;2.10;;
75139;SDS011;63714;55.812;37.658;2023-08-24T09:16:59;3.88;;;2.05;;
75139;SDS011;63714;55.812;37.658;2023-08-24T09:19:32;2.88;;;2.13;;
75139;SDS011;63714;55.812;37.658;2023-08-24T09:22:01;3.15;;;2.15;;
75139;SDS011;63714;55.812;37.658;2023-08-24T09:24:34;5.00;;;2.75;;
75139;SDS011;63714;55.812;37.658;2023-08-24T09:27:18;3.42;;;2.10;;
75139;SDS011;63714;55.812;37.658;2023-08-24T09:29:48;4.50;;;2.40;;
75139;SDS011;63714;55.812;37.658;2023-08-24T09:32:14;5.20;;;2.92;;
75139;SDS011;63714;55.812;37.658;2023-08-24T09:34:40;2.78;;;1.92;;
75139;SDS011;63714;55.812;37.658;2023-08-24T09:37:13;3.08;;;2.00;;
75139;SDS011;63714;55.812;37.658;2023-08-24T09:39:40;2.75;;;2.25;;
75139;SDS011;63714;55.812;37.658;2023-08-24T09:42:06;3.95;;;1.88;;
75139;SDS011;63714;55.812;37.658;2023-08-24T09:44:31;5.72;;;1.85;;
75139;SDS011;63714;55.812;37.658;2023-08-24T09:46:58;3.35;;;2.05;;
75139;SDS011;63714;55.812;37.658;2023-08-24T09:49:24;3.05;;;1.85;;
75139;SDS011;63714;55.812;37.658;2023-08-24T09:51:51;5.07;;;2.10;;
75139;SDS011;63714;55.812;37.658;2023-08-24T09:54:24;3.58;;;2.10;;
75139;SDS011;63714;55.812;37.658;2023-08-24T09:56:52;3.15;;;2.17;;
75139;SDS011;63714;55.812;37.658;2023-08-24T09:59:21;2.97;;;1.85;;
75139;SDS011;63714;55.812;37.658;2023-08-24T10:01:50;4.05;;;1.90;;
75139;SDS011;63714;55.812;37.658;2023-08-24T10:04:34;2.65;;;2.15;;
75139;SDS011;63714;55.812;37.658;2023-08-24T10:07:06;3.20;;;1.80;;
75139;SDS011;63714;55.812;37.658;2023-08-24T10:09:40;2.33;;;1.50;;
75139;SDS011;63714;55.812;37.658;2023-08-24T10:12:10;5.22;;;1.83;;
75139;SDS011;63714;55.812;37.658;2023-08-24T10:14:53;3.97;;;2.30;;
75139;SDS011;63714;55.812;37.658;2023-08-24T10:17:25;3.50;;;1.92;;
75139;SDS011;63714;55.812;37.658;2023-08-24T10:19:52;4.65;;;2.25;;
75139;SDS011;63714;55.812;37.658;2023-08-24T10:22:19;5.53;;;2.15;;
75139;SDS011;63714;55.812;37.658;2023-08-24T10:24:45;3.88;;;2.30;;
75139;SDS011;63714;55.812;37.658;2023-08-24T10:27:13;3.67;;;2.38;;
75139;SDS011;63714;55.812;37.658;2023-08-24T10:29:39;2.72;;;2.00;;
75139;SDS011;63714;55.812;37.658;2023-08-24T10:32:04;4.47;;;2.00;;
75139;SDS011;63714;55.812;37.658;2023-08-24T10:34:31;5.57;;;2.05;;
75139;SDS011;63714;55.812;37.658;2023-08-24T10:36:57;2.60;;;2.22;;
75139;SDS011;63714;55.812;37.658;2023-08-24T10:39:33;3.75;;;2.08;;
75139;SDS011;63714;55.812;37.658;2023-08-24T10:42:00;2.53;;;1.92;;
75139;SDS011;63714;55.812;37.658;2023-08-24T10:44:36;3.03;;;2.10;;
75139;SDS011;63714;55.812;37.658;2023-08-24T10:49:45;4.03;;;2.35;;
75139;SDS011;63714;55.812;37.658;2023-08-24T10:52:30;4.00;;;2.10;;
75139;SDS011;63714;55.812;37.658;2023-08-24T10:55:03;2.70;;;1.90;;
75139;SDS011;63714;55.812;37.658;2023-08-24T10:57:37;3.75;;;2.22;;
75139;SDS011;63714;55.812;37.658;2023-08-24T11:02:40;3.05;;;2.00;;
75139;SDS011;63714;55.812;37.658;2023-08-24T11:05:20;2.75;;;1.80;;
75139;SDS011;63714;55.812;37.658;2023-08-24T11:10:45;4.75;;;2.20;;
75139;SDS011;63714;55.812;37.658;2023-08-24T11:13:12;3.13;;;1.65;;
75139;SDS011;63714;55.812;37.658;2023-08-24T11:15:48;6.72;;;1.98;;
75139;SDS011;63714;55.812;37.658;2023-08-24T11:18:26;4.13;;;2.00;;
75139;SDS011;63714;55.812;37.658;2023-08-24T11:23:29;2.90;;;2.00;;
75139;SDS011;63714;55.812;37.658;2023-08-24T11:25:55;2.72;;;1.80;;
75139;SDS011;63714;55.812;37.658;2023-08-24T11:28:26;2.97;;;1.92;;
75139;SDS011;63714;55.812;37.658;2023-08-24T11:30:53;2.80;;;1.35;;
75139;SDS011;63714;55.812;37.658;2023-08-24T11:33:29;2.20;;;1.60;;
75139;SDS011;63714;55.812;37.658;2023-08-24T11:35:56;12.50;;;2.00;;
75139;SDS011;63714;55.812;37.658;2023-08-24T11:38:22;3.17;;;1.92;;
75139;SDS011;63714;55.812;37.658;2023-08-24T11:40:48;2.33;;;1.60;;
75139;SDS011;63714;55.812;37.658;2023-08-24T11:43:21;2.80;;;1.70;;
75139;SDS011;63714;55.812;37.658;2023-08-24T11:45:49;1.88;;;1.67;;
75139;SDS011;63714;55.812;37.658;2023-08-24T11:48:14;2.78;;;1.50;;
75139;SDS011;63714;55.812;37.658;2023-08-24T11:50:40;2.72;;;1.60;;
75139;SDS011;63714;55.812;37.658;2023-08-24T11:53:06;2.40;;;1.25;;
75139;SDS011;63714;55.812;37.658;2023-08-24T11:55:32;2.20;;;1.52;;
75139;SDS011;63714;55.812;37.658;2023-08-24T11:57:59;2.95;;;1.65;;
75139;SDS011;63714;55.812;37.658;2023-08-24T12:00:25;4.60;;;1.83;;
75139;SDS011;63714;55.812;37.658;2023-08-24T12:02:51;2.88;;;1.58;;
75139;SDS011;63714;55.812;37.658;2023-08-24T12:05:24;2.67;;;1.33;;
75139;SDS011;63714;55.812;37.658;2023-08-24T12:10:17;2.13;;;1.10;;
75139;SDS011;63714;55.812;37.658;2023-08-24T12:12:44;2.75;;;1.40;;
75139;SDS011;63714;55.812;37.658;2023-08-24T12:15:19;4.57;;;1.20;;
75139;SDS011;63714;55.812;37.658;2023-08-24T12:17:45;2.63;;;1.40;;
75139;SDS011;63714;55.812;37.658;2023-08-24T12:20:21;1.95;;;1.30;;
75139;SDS011;63714;55.812;37.658;2023-08-24T12:22:50;3.75;;;1.33;;
75139;SDS011;63714;55.812;37.658;2023-08-24T12:25:22;3.47;;;1.30;;
75139;SDS011;63714;55.812;37.658;2023-08-24T12:27:49;3.15;;;1.20;;
75139;SDS011;63714;55.812;37.658;2023-08-24T12:30:16;2.55;;;1.15;;
75139;SDS011;63714;55.812;37.658;2023-08-24T12:32:43;1.90;;;1.13;;
75139;SDS011;63714;55.812;37.658;2023-08-24T12:35:13;2.53;;;1.33;;
75139;SDS011;63714;55.812;37.658;2023-08-24T12:37:39;1.50;;;1.02;;
75139;SDS011;63714;55.812;37.658;2023-08-24T12:40:05;3.22;;;1.20;;
75139;SDS011;63714;55.812;37.658;2023-08-24T12:42:32;3.25;;;1.60;;
75139;SDS011;63714;55.812;37.658;2023-08-24T12:44:57;3.75;;;1.50;;
75139;SDS011;63714;55.812;37.658;2023-08-24T12:47:23;3.13;;;1.45;;
75139;SDS011;63714;55.812;37.658;2023-08-24T12:49:49;3.15;;;1.42;;
75139;SDS011;63714;55.812;37.658;2023-08-24T12:52:16;2.65;;;1.23;;
75139;SDS011;63714;55.812;37.658;2023-08-24T12:54:42;3.00;;;1.60;;
75139;SDS011;63714;55.812;37.658;2023-08-24T12:57:07;3.00;;;1.73;;
75139;SDS011;63714;55.812;37.658;2023-08-24T12:59:33;2.35;;;1.25;;
75139;SDS011;63714;55.812;37.658;2023-08-24T13:01:59;3.50;;;1.58;;
75139;SDS011;63714;55.812;37.658;2023-08-24T13:04:24;4.13;;;1.55;;
75139;SDS011;63714;55.812;37.658;2023-08-24T13:06:50;3.28;;;1.40;;
75139;SDS011;63714;55.812;37.658;2023-08-24T13:09:15;3.90;;;1.40;;
75139;SDS011;63714;55.812;37.658;2023-08-24T13:11:41;3.15;;;1.63;;
75139;SDS011;63714;55.812;37.658;2023-08-24T13:14:07;3.60;;;1.40;;
75139;SDS011;63714;55.812;37.658;2023-08-24T13:16:33;5.78;;;1.67;;
75139;SDS011;63714;55.812;37.658;2023-08-24T13:18:58;2.95;;;1.60;;
75139;SDS011;63714;55.812;37.658;2023-08-24T13:21:24;4.28;;;3.17;;
75139;SDS011;63714;55.812;37.658;2023-08-24T13:23:50;3.28;;;1.77;;
75139;SDS011;63714;55.812;37.658;2023-08-24T13:26:18;3.55;;;1.50;;
75139;SDS011;63714;55.812;37.658;2023-08-24T13:28:45;2.47;;;1.23;;
75139;SDS011;63714;55.812;37.658;2023-08-24T13:31:12;4.78;;;1.40;;
75139;SDS011;63714;55.812;37.658;2023-08-24T13:33:37;4.28;;;1.60;;
75139;SDS011;63714;55.812;37.658;2023-08-24T13:36:03;5.20;;;2.35;;
75139;SDS011;63714;55.812;37.658;2023-08-24T13:38:28;5.10;;;1.70;;
75139;SDS011;63714;55.812;37.658;2023-08-24T13:40:54;3.60;;;1.67;;
75139;SDS011;63714;55.812;37.658;2023-08-24T13:43:19;4.22;;;1.67;;
75139;SDS011;63714;55.812;37.658;2023-08-24T13:45:45;3.17;;;1.52;;
75139;SDS011;63714;55.812;37.658;2023-08-24T13:48:10;2.60;;;1.50;;
75139;SDS011;63714;55.812;37.658;2023-08-24T13:50:36;2.45;;;1.50;;
75139;SDS011;63714;55.812;37.658;2023-08-24T13:53:01;2.50;;;1.42;;
75139;SDS011;63714;55.812;37.658;2023-08-24T13:55:27;3.53;;;1.50;;
75139;SDS011;63714;55.812;37.658;2023-08-24T13:57:52;4.18;;;1.77;;
75139;SDS011;63714;55.812;37.658;2023-08-24T14:00:18;2.90;;;1.40;;
75139;SDS011;63714;55.812;37.658;2023-08-24T14:02:43;2.72;;;1.42;;
75139;SDS011;63714;55.812;37.658;2023-08-24T14:05:10;3.25;;;1.58;;
75139;SDS011;63714;55.812;37.658;2023-08-24T14:07:36;4.18;;;1.58;;
75139;SDS011;63714;55.812;37.658;2023-08-24T14:10:02;7.80;;;1.92;;
75139;SDS011;63714;55.812;37.658;2023-08-24T14:12:29;9.65;;;4.05;;
75139;SDS011;63714;55.812;37.658;2023-08-24T14:14:55;4.45;;;1.50;;
75139;SDS011;63714;55.812;37.658;2023-08-24T14:17:21;2.30;;;1.60;;
75139;SDS011;63714;55.812;37.658;2023-08-24T14:19:46;3.13;;;1.60;;
75139;SDS011;63714;55.812;37.658;2023-08-24T14:22:11;4.30;;;1.83;;
75139;SDS011;63714;55.812;37.658;2023-08-24T14:24:37;10.23;;;5.18;;
75139;SDS011;63714;55.812;37.658;2023-08-24T14:27:02;2.22;;;1.75;;
75139;SDS011;63714;55.812;37.658;2023-08-24T14:29:28;2.30;;;1.58;;
75139;SDS011;63714;55.812;37.658;2023-08-24T14:31:53;3.08;;;1.75;;
75139;SDS011;63714;55.812;37.658;2023-08-24T14:34:19;2.58;;;1.52;;
75139;SDS011;63714;55.812;37.658;2023-08-24T14:36:44;2.45;;;1.60;;
75139;SDS011;63714;55.812;37.658;2023-08-24T14:39:10;2.95;;;1.60;;
75139;SDS011;63714;55.812;37.658;2023-08-24T14:41:35;3.25;;;1.58;;
75139;SDS011;63714;55.812;37.658;2023-08-24T14:44:01;4.38;;;1.70;;
75139;SDS011;63714;55.812;37.658;2023-08-24T14:46:26;4.68;;;1.67;;
75139;SDS011;63714;55.812;37.658;2023-08-24T14:48:52;3.45;;;1.55;;
75139;SDS011;63714;55.812;37.658;2023-08-24T14:51:17;3.67;;;1.17;;
75139;SDS011;63714;55.812;37.658;2023-08-24T14:53:43;3.20;;;1.70;;
75139;SDS011;63714;55.812;37.658;2023-08-24T14:56:08;2.95;;;1.50;;